Time;durP1;ratioP1;P1;durP2;ratioP2;P2;SDS_P1;SDS_P2;PMS_P1;PMS_P2;Temp;Humidity;BMP_temperature;BMP_pressure;BME280_temperature;BME280_humidity;BME280_pressure;Samples;Min_cycle;Max_cycle;Signal;HPM_P1;HPM_P2
2022/08/15 00:01:21;;;;;;;11.00;7.68;;;19.50;99.90;;;;;;5033464;28;20025;-83
2022/08/15 00:03:51;;;;;;;12.15;7.90;;;19.50;99.90;;;;;;5032675;28;20033;-83
2022/08/15 00:06:34;;;;;;;8.40;7.47;;;19.30;99.90;;;;;;5032894;28;20381;-83
2022/08/15 00:09:02;;;;;;;12.38;8.00;;;19.40;99.90;;;;;;5032682;28;20029;-83
2022/08/15 00:11:38;;;;;;;9.82;7.90;;;19.50;99.90;;;;;;5033135;28;20064;-84
2022/08/15 00:14:11;;;;;;;8.93;7.95;;;19.50;99.90;;;;;;5025977;28;20053;-83
2022/08/15 00:16:39;;;;;;;9.20;7.43;;;19.60;99.90;;;;;;5032904;28;20025;-83
2022/08/15 00:19:15;;;;;;;8.25;7.40;;;19.30;99.90;;;;;;5047433;28;20043;-83
2022/08/15 00:21:46;;;;;;;9.77;7.10;;;19.20;99.90;;;;;;5052603;28;20017;-83
2022/08/15 00:24:15;;;;;;;12.70;7.20;;;19.10;99.90;;;;;;5052442;28;20032;-83
2022/08/15 00:26:43;;;;;;;10.95;7.38;;;19.10;99.90;;;;;;5051907;28;20043;-83
2022/08/15 00:29:09;;;;;;;9.40;7.43;;;19.10;99.90;;;;;;5052696;28;20110;-83
2022/08/15 00:31:35;;;;;;;11.40;8.18;;;19.10;99.90;;;;;;5052107;28;20021;-83
2022/08/15 00:34:03;;;;;;;9.70;7.50;;;19.10;99.90;;;;;;5052307;28;20370;-83
2022/08/15 00:36:30;;;;;;;9.35;7.95;;;19.10;99.90;;;;;;5052863;28;20024;-83
2022/08/15 00:39:03;;;;;;;8.48;7.22;;;19.00;99.90;;;;;;5052365;28;20143;-83
2022/08/15 00:41:41;;;;;;;7.47;6.78;;;19.00;99.90;;;;;;5051912;28;20055;-83
2022/08/15 00:44:17;;;;;;;8.15;7.35;;;19.10;99.90;;;;;;5052512;28;20037;-83
2022/08/15 00:46:47;;;;;;;8.23;7.40;;;19.10;99.90;;;;;;5052270;28;20024;-83
2022/08/15 00:49:13;;;;;;;11.50;7.47;;;19.10;99.90;;;;;;5052349;28;20167;-83
2022/08/15 00:52:05;;;;;;;8.57;7.35;;;19.10;99.90;;;;;;5052301;28;20381;-83
2022/08/15 00:54:39;;;;;;;8.73;7.70;;;19.00;99.90;;;;;;5052084;28;20451;-84
2022/08/15 00:57:13;;;;;;;12.00;7.88;;;19.10;99.90;;;;;;5051759;28;20021;-83
2022/08/15 00:59:45;;;;;;;9.60;8.00;;;19.10;99.90;;;;;;5052008;28;20159;-83
2022/08/15 01:02:14;;;;;;;9.40;7.55;;;19.00;99.90;;;;;;5052438;28;20091;-83
2022/08/15 01:04:39;;;;;;;9.82;8.02;;;19.00;99.90;;;;;;5052004;28;20033;-83
2022/08/15 01:07:08;;;;;;;13.68;7.55;;;18.90;99.90;;;;;;5051977;28;20040;-84
2022/08/15 01:09:35;;;;;;;9.32;7.40;;;18.80;99.90;;;;;;5051841;28;20025;-84
2022/08/15 01:12:07;;;;;;;10.10;7.43;;;18.80;99.90;;;;;;5051629;28;20104;-83
2022/08/15 01:14:35;;;;;;;11.30;7.80;;;18.80;99.90;;;;;;5052135;28;20025;-83
2022/08/15 01:17:02;;;;;;;8.85;7.65;;;18.70;99.90;;;;;;5056088;28;20100;-83
2022/08/15 01:19:36;;;;;;;10.57;7.95;;;18.80;99.90;;;;;;5055907;28;20359;-84
2022/08/15 01:22:44;;;;;;;10.48;8.18;;;18.80;99.90;;;;;;5056010;28;20060;-83
2022/08/15 01:25:12;;;;;;;11.80;8.15;;;18.80;99.90;;;;;;4955215;29;20047;-83
2022/08/15 01:27:50;;;;;;;8.65;7.60;;;18.70;99.90;;;;;;4940827;29;20461;-83
2022/08/15 01:30:19;;;;;;;9.05;7.95;;;18.70;99.90;;;;;;4936787;29;20032;-83
2022/08/15 01:32:46;;;;;;;9.18;7.88;;;18.60;99.90;;;;;;4936447;29;20055;-82
2022/08/15 01:35:14;;;;;;;10.18;7.82;;;18.50;99.90;;;;;;4936299;29;20091;-83
2022/08/15 01:37:41;;;;;;;8.88;7.72;;;18.60;99.90;;;;;;4936360;29;20471;-83
2022/08/15 01:40:14;;;;;;;10.07;8.15;;;18.60;99.90;;;;;;4936391;29;20023;-83
2022/08/15 01:42:44;;;;;;;9.18;7.50;;;18.60;99.90;;;;;;4936216;29;20400;-83
2022/08/15 01:45:23;;;;;;;11.15;8.23;;;18.60;99.90;;;;;;4936286;29;20420;-83
2022/08/15 01:48:17;;;;;;;9.43;8.15;;;18.50;99.90;;;;;;4936182;29;20083;-83
2022/08/15 01:50:49;;;;;;;9.63;8.43;;;18.60;99.90;;;;;;4936329;29;20032;-83
2022/08/15 01:53:21;;;;;;;9.25;8.10;;;18.60;99.90;;;;;;4935983;29;20028;-83
2022/08/15 01:56:05;;;;;;;12.23;8.30;;;18.60;99.90;;;;;;4935584;29;20042;-83
2022/08/15 01:58:37;;;;;;;8.45;7.70;;;18.60;99.90;;;;;;4936037;29;20171;-84
2022/08/15 02:01:08;;;;;;;10.88;7.57;;;18.60;99.90;;;;;;4943629;28;20567;-84
2022/08/15 02:03:35;;;;;;;14.60;7.85;;;18.50;99.90;;;;;;5035491;28;20482;-83
2022/08/15 02:06:11;;;;;;;12.18;7.78;;;18.60;99.90;;;;;;5035278;28;20108;-83
2022/08/15 02:08:38;;;;;;;10.23;8.02;;;18.50;99.90;;;;;;5035202;28;20083;-83
2022/08/15 02:11:10;;;;;;;8.55;7.75;;;18.50;99.90;;;;;;5035105;28;20105;-83
2022/08/15 02:13:37;;;;;;;8.30;7.50;;;18.40;99.90;;;;;;5035226;28;20029;-83
2022/08/15 02:16:03;;;;;;;9.63;7.93;;;18.40;99.90;;;;;;5035151;28;20028;-84
2022/08/15 02:18:28;;;;;;;12.52;8.10;;;18.40;99.90;;;;;;5034842;28;20033;-83
2022/08/15 02:20:54;;;;;;;9.85;8.60;;;18.40;99.90;;;;;;5035087;28;20014;-83
2022/08/15 02:23:21;;;;;;;9.45;8.55;;;18.50;99.90;;;;;;5034482;28;20717;-84
2022/08/15 02:25:52;;;;;;;9.77;8.85;;;18.50;99.90;;;;;;5016207;28;20030;-83
2022/08/15 02:28:18;;;;;;;10.85;9.75;;;18.60;99.90;;;;;;5049824;28;20037;-84
2022/08/15 02:30:44;;;;;;;10.93;9.80;;;18.60;99.90;;;;;;5054816;28;20033;-83
2022/08/15 02:33:10;;;;;;;13.63;9.93;;;18.60;99.90;;;;;;5054865;28;20020;-84
2022/08/15 02:35:36;;;;;;;11.73;10.18;;;18.60;99.90;;;;;;5054856;28;20032;-83
2022/08/15 02:38:05;;;;;;;12.30;9.57;;;18.60;99.90;;;;;;5054273;28;20393;-83
2022/08/15 02:40:33;;;;;;;12.68;10.20;;;18.60;99.90;;;;;;5054713;28;20029;-84
2022/08/15 02:43:08;;;;;;;10.88;9.77;;;18.50;99.90;;;;;;5054431;28;20025;-83
2022/08/15 02:45:37;;;;;;;11.75;9.43;;;18.50;99.90;;;;;;5054385;28;20504;-84
2022/08/15 02:48:10;;;;;;;12.65;10.18;;;18.40;99.90;;;;;;5054493;28;20025;-83
2022/08/15 02:50:37;;;;;;;12.15;10.00;;;18.40;99.90;;;;;;5054374;28;20033;-84
2022/08/15 02:53:12;;;;;;;10.25;9.35;;;18.40;99.90;;;;;;5054395;28;20041;-83
2022/08/15 02:55:40;;;;;;;14.23;10.13;;;18.40;99.90;;;;;;5054480;28;20032;-83
2022/08/15 02:58:05;;;;;;;11.20;9.65;;;18.50;99.90;;;;;;5054254;28;20519;-83
2022/08/15 03:00:31;;;;;;;10.73;9.02;;;18.50;99.90;;;;;;5054258;28;20029;-84
2022/08/15 03:03:06;;;;;;;10.15;9.07;;;18.50;99.90;;;;;;5054169;28;20021;-84
2022/08/15 03:05:34;;;;;;;10.25;9.23;;;18.60;99.90;;;;;;5053899;28;20029;-83
2022/08/15 03:08:00;;;;;;;10.95;8.68;;;18.60;99.90;;;;;;5053849;28;20033;-84
2022/08/15 03:10:26;;;;;;;10.82;9.70;;;18.60;99.90;;;;;;5054199;28;20056;-83
2022/08/15 03:13:07;;;;;;;11.23;9.43;;;18.50;99.90;;;;;;5053956;28;20075;-84
2022/08/15 03:15:56;;;;;;;11.15;9.82;;;18.50;99.90;;;;;;5036313;28;20102;-84
2022/08/15 03:18:23;;;;;;;10.40;9.35;;;18.50;99.90;;;;;;5053970;28;20481;-84
2022/08/15 03:20:51;;;;;;;10.35;9.02;;;18.50;99.90;;;;;;5053556;28;20025;-84
2022/08/15 03:23:22;;;;;;;10.48;9.38;;;18.50;99.90;;;;;;5053704;28;20524;-83
2022/08/15 03:25:50;;;;;;;10.63;9.52;;;18.40;99.90;;;;;;5053325;28;20040;-85
2022/08/15 03:28:25;;;;;;;10.98;8.70;;;18.40;99.90;;;;;;5052866;28;20075;-85
2022/08/15 03:30:51;;;;;;;10.55;9.48;;;18.30;99.90;;;;;;5053266;28;20046;-84
2022/08/15 03:33:17;;;;;;;9.93;8.93;;;18.40;99.90;;;;;;5053594;28;20079;-84
2022/08/15 03:35:46;;;;;;;9.10;8.20;;;18.30;99.90;;;;;;5053003;28;20424;-84
2022/08/15 03:38:13;;;;;;;8.68;7.82;;;18.30;99.90;;;;;;5053232;28;20040;-83
2022/08/15 03:40:41;;;;;;;9.88;8.45;;;18.40;99.90;;;;;;5053470;28;20028;-83
2022/08/15 03:43:11;;;;;;;11.07;8.30;;;18.50;99.90;;;;;;5052912;28;20033;-84
2022/08/15 03:45:37;;;;;;;9.95;8.88;;;18.50;99.90;;;;;;5053185;28;20481;-84
2022/08/15 03:48:03;;;;;;;11.32;8.77;;;18.60;99.90;;;;;;5053522;28;20029;-83
2022/08/15 03:50:32;;;;;;;11.30;8.77;;;18.50;99.90;;;;;;5052873;28;20086;-84
2022/08/15 03:53:01;;;;;;;10.13;8.80;;;18.40;99.90;;;;;;5053118;28;20074;-83
2022/08/15 03:55:30;;;;;;;10.68;8.60;;;18.50;99.90;;;;;;5053104;28;20022;-84
2022/08/15 03:57:57;;;;;;;9.73;8.63;;;18.50;99.90;;;;;;5053116;28;20053;-83
2022/08/15 04:00:28;;;;;;;11.55;8.68;;;18.50;99.90;;;;;;5053003;28;20032;-84
2022/08/15 04:03:10;;;;;;;12.48;9.18;;;18.40;99.90;;;;;;5053266;28;20043;-83
2022/08/15 04:05:37;;;;;;;11.05;8.52;;;18.50;99.90;;;;;;5052528;28;20037;-84
2022/08/15 04:08:05;;;;;;;10.00;8.73;;;18.40;99.90;;;;;;5053033;28;20024;-83
2022/08/15 04:10:31;;;;;;;10.65;9.43;;;18.50;99.90;;;;;;5053227;28;20025;-84
2022/08/15 04:12:57;;;;;;;15.40;8.50;;;18.30;99.90;;;;;;5052687;28;20029;-83
2022/08/15 04:15:23;;;;;;;14.98;8.05;;;18.20;99.90;;;;;;5052817;28;20570;-84
2022/08/15 04:17:51;;;;;;;11.77;8.95;;;18.20;99.90;;;;;;5052522;28;20159;-83
2022/08/15 04:20:17;;;;;;;10.48;8.48;;;18.30;99.90;;;;;;5052398;28;20021;-84
2022/08/15 04:22:47;;;;;;;9.23;8.32;;;18.50;99.90;;;;;;5052541;28;20032;-84
2022/08/15 04:25:19;;;;;;;9.85;8.13;;;18.50;99.90;;;;;;5052450;28;20497;-83
2022/08/15 04:27:46;;;;;;;8.57;7.68;;;18.60;99.90;;;;;;5052780;28;20468;-83
2022/08/15 04:30:13;;;;;;;10.48;7.97;;;18.60;99.90;;;;;;5052300;28;20040;-84
2022/08/15 04:32:39;;;;;;;11.35;8.98;;;18.60;99.90;;;;;;5052525;28;20017;-83
2022/08/15 04:35:08;;;;;;;11.63;8.75;;;18.60;99.90;;;;;;5052384;28;20033;-84
2022/08/15 04:37:36;;;;;;;9.38;8.38;;;18.50;99.90;;;;;;5052286;28;20024;-83
2022/08/15 04:40:03;;;;;;;9.85;8.88;;;18.50;99.90;;;;;;5052400;28;20108;-84
2022/08/15 04:42:28;;;;;;;9.32;8.50;;;18.50;99.90;;;;;;5052438;28;20025;-83
2022/08/15 04:44:54;;;;;;;9.90;8.93;;;18.50;99.90;;;;;;5052218;28;20572;-84
2022/08/15 04:47:21;;;;;;;11.85;9.32;;;18.50;99.20;;;;;;5052085;28;20029;-84
2022/08/15 04:49:46;;;;;;;11.15;9.70;;;18.70;99.90;;;;;;5050937;28;20112;-83
2022/08/15 04:52:18;;;;;;;10.50;9.43;;;18.70;99.90;;;;;;5052535;28;20096;-84
2022/08/15 04:54:45;;;;;;;10.90;9.70;;;18.80;99.90;;;;;;5052228;28;20117;-84
2022/08/15 04:57:12;;;;;;;12.88;10.65;;;18.80;99.90;;;;;;5052301;28;20024;-83
2022/08/15 04:59:39;;;;;;;14.80;12.35;;;18.70;99.90;;;;;;5052019;28;20037;-83
2022/08/15 05:02:08;;;;;;;13.98;11.63;;;18.70;99.90;;;;;;5051977;28;20055;-84
2022/08/15 05:04:34;;;;;;;14.13;12.15;;;18.60;99.90;;;;;;5052298;28;20037;-84
2022/08/15 05:07:00;;;;;;;11.35;9.77;;;18.60;99.60;;;;;;5052022;28;20048;-84
2022/08/15 05:09:25;;;;;;;10.20;8.95;;;18.70;95.80;;;;;;5052013;28;20122;-84
2022/08/15 05:11:51;;;;;;;10.55;9.45;;;18.60;99.90;;;;;;5052265;28;20029;-83
2022/08/15 05:14:18;;;;;;;10.93;9.88;;;18.60;99.90;;;;;;5051884;28;20028;-83
2022/08/15 05:16:43;;;;;;;11.40;9.60;;;18.60;99.90;;;;;;5051587;28;20079;-83
2022/08/15 05:19:09;;;;;;;11.32;9.95;;;18.70;99.90;;;;;;5049911;28;20033;-83
2022/08/15 05:21:36;;;;;;;10.30;9.30;;;18.60;95.60;;;;;;5051957;28;20035;-84
2022/08/15 05:24:02;;;;;;;11.13;10.00;;;18.70;96.50;;;;;;5052134;28;20025;-83
2022/08/15 05:26:27;;;;;;;13.00;10.07;;;18.80;97.20;;;;;;5051721;28;20052;-83
2022/08/15 05:28:53;;;;;;;11.73;10.63;;;19.00;99.70;;;;;;5051872;28;20021;-83
2022/08/15 05:31:19;;;;;;;11.43;10.43;;;18.80;99.10;;;;;;5051362;28;20112;-83
2022/08/15 05:33:46;;;;;;;11.85;9.98;;;18.80;97.90;;;;;;5051711;28;20111;-84
2022/08/15 05:36:13;;;;;;;11.43;10.30;;;18.90;99.90;;;;;;5052110;28;20017;-83
2022/08/15 05:38:46;;;;;;;12.02;9.68;;;19.00;99.90;;;;;;5051781;28;20163;-83
2022/08/15 05:41:14;;;;;;;11.20;9.38;;;19.10;99.90;;;;;;5034189;28;20028;-84
2022/08/15 05:44:00;;;;;;;10.02;8.82;;;19.20;99.90;;;;;;5051554;28;20393;-84
2022/08/15 05:46:52;;;;;;;10.77;9.73;;;19.20;99.90;;;;;;5051255;28;20025;-83
2022/08/15 05:49:20;;;;;;;12.65;9.55;;;19.10;99.90;;;;;;5052038;28;20036;-84
2022/08/15 05:52:09;;;;;;;10.02;9.10;;;19.10;99.90;;;;;;5051591;28;20028;-84
2022/08/15 05:55:09;;;;;;;11.48;9.88;;;19.10;99.90;;;;;;4970554;28;20042;-84
2022/08/15 05:57:41;;;;;;;13.48;10.02;;;19.20;99.90;;;;;;4951517;29;20131;-84
2022/08/15 06:00:12;;;;;;;11.30;9.60;;;19.10;99.90;;;;;;4951173;29;20035;-83
2022/08/15 06:02:43;;;;;;;10.75;9.68;;;19.20;99.90;;;;;;4954219;29;20476;-84
2022/08/15 06:05:32;;;;;;;10.25;8.77;;;19.30;99.90;;;;;;4955363;29;20499;-84
2022/08/15 06:08:06;;;;;;;14.10;9.23;;;19.40;99.90;;;;;;4955070;29;20035;-83
2022/08/15 06:10:47;;;;;;;10.60;8.73;;;19.50;99.90;;;;;;4955096;29;20115;-83
2022/08/15 06:13:18;;;;;;;9.88;8.88;;;19.50;99.90;;;;;;4954877;29;20086;-83
2022/08/15 06:16:16;;;;;;;10.75;8.63;;;19.70;99.90;;;;;;4954331;29;20078;-84
2022/08/15 06:18:43;;;;;;;9.30;8.50;;;19.80;99.90;;;;;;4943426;29;20051;-84
2022/08/15 06:21:40;;;;;;;10.00;9.10;;;19.80;99.90;;;;;;4935672;29;20048;-83
2022/08/15 06:24:26;;;;;;;9.10;8.30;;;19.80;99.90;;;;;;4935399;29;20040;-83
2022/08/15 06:27:08;;;;;;;9.07;8.18;;;20.00;99.90;;;;;;4926729;29;20576;-83
2022/08/15 06:29:34;;;;;;;11.25;8.52;;;20.00;99.90;;;;;;4916033;29;20432;-84
2022/08/15 06:32:09;;;;;;;9.23;8.43;;;20.10;99.90;;;;;;4952976;28;20106;-83
2022/08/15 06:35:13;;;;;;;9.00;8.10;;;20.20;99.90;;;;;;5032170;28;20040;-83
2022/08/15 06:38:10;;;;;;;9.93;8.73;;;20.30;99.90;;;;;;5034614;28;20532;-83
2022/08/15 06:40:57;;;;;;;9.70;8.25;;;20.40;96.50;;;;;;5034920;28;20071;-83
2022/08/15 06:43:23;;;;;;;9.57;8.57;;;20.40;99.90;;;;;;5034447;28;20132;-84
2022/08/15 06:45:53;;;;;;;9.55;8.50;;;20.40;99.90;;;;;;5034444;28;20397;-83
2022/08/15 06:48:21;;;;;;;8.95;8.07;;;20.40;99.90;;;;;;5034560;28;20486;-83
2022/08/15 06:50:50;;;;;;;9.90;8.77;;;20.40;99.90;;;;;;5034448;28;20101;-83
2022/08/15 06:53:35;;;;;;;10.45;9.18;;;20.30;99.90;;;;;;5034259;28;20055;-83
2022/08/15 06:56:02;;;;;;;9.13;8.23;;;20.30;99.90;;;;;;5012684;28;20446;-83
2022/08/15 06:58:52;;;;;;;8.80;7.65;;;20.40;99.90;;;;;;5030381;28;20026;-83
2022/08/15 07:01:43;;;;;;;11.05;8.55;;;20.60;99.90;;;;;;5034610;28;20053;-84
2022/08/15 07:04:36;;;;;;;8.85;8.15;;;20.60;99.90;;;;;;5024264;28;20033;-86
2022/08/15 07:07:08;;;;;;;10.77;8.57;;;20.60;99.90;;;;;;5033699;28;20084;-86
2022/08/15 07:09:39;;;;;;;9.30;8.40;;;20.50;99.90;;;;;;5033195;28;20033;-90
2022/08/15 07:12:11;;;;;;;10.95;7.82;;;20.60;99.90;;;;;;5033015;28;20033;-89
2022/08/15 07:14:58;;;;;;;11.85;7.25;;;21.10;99.90;;;;;;5033173;28;20041;-89
2022/08/15 07:17:45;;;;;;;8.63;7.47;;;21.40;99.90;;;;;;5037020;28;20028;-89
2022/08/15 07:20:11;;;;;;;8.68;7.85;;;21.60;99.90;;;;;;5033437;28;20032;-92
2022/08/15 07:22:40;;;;;;;7.72;7.03;;;22.00;99.90;;;;;;5033754;28;20156;-87
2022/08/15 07:25:18;;;;;;;7.43;6.72;;;22.10;99.90;;;;;;5032879;28;20048;-87
2022/08/15 07:27:58;;;;;;;8.43;7.00;;;22.20;99.90;;;;;;5049702;28;20056;-86
2022/08/15 07:30:45;;;;;;;8.05;7.30;;;22.50;99.90;;;;;;5055401;28;20024;-85
2022/08/15 07:33:31;;;;;;;7.53;6.75;;;22.80;99.90;;;;;;5036763;28;20061;-86
2022/08/15 07:36:03;;;;;;;7.20;6.45;;;23.10;99.90;;;;;;5053898;28;20060;-86
2022/08/15 07:38:32;;;;;;;7.75;6.90;;;23.30;99.90;;;;;;5053821;28;20028;-87
2022/08/15 07:41:28;;;;;;;8.35;6.45;;;23.40;99.90;;;;;;5053043;28;20033;-86
2022/08/15 07:44:18;;;;;;;7.30;6.45;;;23.50;99.90;;;;;;5053023;28;20370;-86
2022/08/15 07:47:09;;;;;;;7.10;6.50;;;23.90;99.90;;;;;;5025625;28;20071;-86
2022/08/15 07:49:37;;;;;;;7.50;6.70;;;23.90;99.90;;;;;;5053204;28;20527;-89
2022/08/15 07:52:22;;;;;;;8.73;6.63;;;23.80;99.90;;;;;;5056172;28;20028;-89
2022/08/15 07:54:54;;;;;;;9.05;6.80;;;23.90;99.90;;;;;;5073050;28;20025;-90
2022/08/15 07:57:35;;;;;;;7.28;6.28;;;24.20;99.90;;;;;;5058998;28;20111;-91
2022/08/15 08:00:16;;;;;;;8.90;6.65;;;24.00;99.90;;;;;;5034047;28;20025;-88
2022/08/15 08:02:50;;;;;;;6.43;5.93;;;23.60;99.90;;;;;;5051969;28;20021;-88
2022/08/15 08:05:16;;;;;;;6.57;5.97;;;23.50;99.90;;;;;;5052656;28;20025;-88
2022/08/15 08:07:45;;;;;;;7.07;6.38;;;23.50;99.90;;;;;;5053107;28;20033;-87
2022/08/15 08:10:39;;;;;;;7.00;6.28;;;23.70;99.90;;;;;;5052441;28;20028;-87
2022/08/15 08:13:12;;;;;;;6.93;6.28;;;24.00;99.90;;;;;;5052607;28;20033;-87
2022/08/15 08:15:52;;;;;;;7.32;6.15;;;24.20;99.90;;;;;;5052467;28;20496;-87
2022/08/15 08:18:39;;;;;;;6.78;5.80;;;24.30;99.90;;;;;;5053456;28;20033;-87
2022/08/15 08:21:11;;;;;;;6.80;6.20;;;24.40;99.90;;;;;;5052338;28;20103;-88
2022/08/15 08:23:45;;;;;;;8.15;6.40;;;24.60;99.90;;;;;;5051996;28;20393;-87
2022/08/15 08:26:35;;;;;;;7.15;6.45;;;24.80;99.90;;;;;;5051594;28;20111;-87
2022/08/15 08:29:36;;;;;;;7.20;6.50;;;24.40;99.90;;;;;;5052325;28;20040;-87
2022/08/15 08:32:33;;;;;;;6.82;6.15;;;24.40;99.90;;;;;;5051660;28;20473;-87
2022/08/15 08:35:15;;;;;;;6.60;6.00;;;24.70;99.90;;;;;;5041282;28;20060;-87
2022/08/15 08:37:55;;;;;;;10.57;6.55;;;24.90;99.90;;;;;;5054301;28;20521;-87
2022/08/15 08:43:59;;;;;;;6.82;5.68;;;25.10;99.90;;;;;;5046843;28;20062;-87
2022/08/15 08:46:45;;;;;;;6.63;5.75;;;25.50;99.90;;;;;;5051057;28;20051;-87
2022/08/15 08:49:20;;;;;;;7.65;5.90;;;25.80;99.90;;;;;;5051507;28;20147;-87
2022/08/15 08:52:14;;;;;;;6.57;5.90;;;26.10;99.90;;;;;;5052361;28;20025;-87
2022/08/15 08:54:59;;;;;;;6.38;5.50;;;26.50;99.90;;;;;;5050453;28;20033;-87
2022/08/15 08:57:32;;;;;;;7.20;5.82;;;26.80;99.90;;;;;;5051726;28;20032;-87
2022/08/15 09:00:01;;;;;;;7.35;6.00;;;27.00;99.90;;;;;;5051775;28;20025;-86
2022/08/15 09:02:49;;;;;;;6.70;6.03;;;27.20;99.90;;;;;;5048382;28;20485;-86
2022/08/15 09:05:33;;;;;;;8.32;6.03;;;27.20;99.90;;;;;;5052435;28;20108;-86
2022/08/15 09:08:11;;;;;;;7.72;5.90;;;27.10;99.90;;;;;;5051830;28;20029;-86
2022/08/15 09:10:39;;;;;;;7.65;6.07;;;26.90;99.90;;;;;;5052331;28;20052;-86
2022/08/15 09:15:57;;;;;;;8.18;6.35;;;26.80;99.90;;;;;;5051978;28;20040;-87
2022/08/15 09:18:29;;;;;;;7.47;5.90;;;26.80;99.90;;;;;;5051566;28;20080;-87
2022/08/15 09:20:56;;;;;;;7.53;5.90;;;26.70;99.90;;;;;;5043236;28;20501;-87
2022/08/15 09:23:23;;;;;;;7.57;6.25;;;27.00;99.90;;;;;;5047649;28;20068;-87
2022/08/15 09:26:07;;;;;;;6.40;5.70;;;27.00;99.90;;;;;;5051200;28;20032;-86
2022/08/15 09:28:37;;;;;;;8.23;6.07;;;27.30;99.90;;;;;;5062980;28;20040;-87
2022/08/15 09:31:25;;;;;;;5.93;5.30;;;27.70;99.90;;;;;;5051227;28;20017;-87
2022/08/15 09:33:51;;;;;;;6.47;5.18;;;27.60;99.90;;;;;;5051200;28;20555;-87
2022/08/15 09:36:22;;;;;;;6.40;5.05;;;27.90;99.90;;;;;;5071231;28;20025;-87
2022/08/15 09:38:59;;;;;;;5.50;4.93;;;27.80;99.90;;;;;;5059581;28;20031;-87
2022/08/15 09:41:42;;;;;;;5.75;5.05;;;27.90;99.90;;;;;;5055467;28;20144;-87
2022/08/15 09:44:34;;;;;;;6.20;5.50;;;28.10;99.90;;;;;;5054524;28;20048;-87
2022/08/15 09:47:17;;;;;;;5.38;4.55;;;27.60;99.90;;;;;;5062864;28;20074;-88
2022/08/15 09:49:57;;;;;;;4.97;4.43;;;27.60;99.90;;;;;;5060461;28;20031;-88
2022/08/15 09:52:56;;;;;;;5.75;4.53;;;27.20;99.90;;;;;;5054941;28;20033;-87
2022/08/15 09:55:21;;;;;;;6.97;4.90;;;27.20;99.90;;;;;;5054715;28;20393;-87
2022/08/15 09:57:53;;;;;;;5.25;4.78;;;27.20;99.90;;;;;;5055213;28;20025;-87
2022/08/15 10:00:39;;;;;;;5.03;4.53;;;27.40;99.90;;;;;;5054998;28;20021;-87
2022/08/15 10:03:24;;;;;;;5.30;4.30;;;27.50;99.90;;;;;;5055347;28;20024;-88
2022/08/15 10:06:08;;;;;;;5.13;4.63;;;27.60;99.90;;;;;;5054876;28;20036;-87
2022/08/15 10:08:55;;;;;;;6.72;4.60;;;27.70;99.90;;;;;;5055115;28;20087;-87
2022/08/15 10:11:46;;;;;;;6.55;4.43;;;27.50;99.90;;;;;;5055442;28;20017;-87
2022/08/15 10:14:21;;;;;;;4.22;3.83;;;27.80;99.90;;;;;;5030659;28;20044;-86
2022/08/15 10:16:54;;;;;;;4.50;4.03;;;27.40;99.90;;;;;;5055215;28;20032;-87
2022/08/15 10:19:38;;;;;;;4.50;4.10;;;27.70;99.90;;;;;;5036230;28;20033;-88
2022/08/15 10:22:22;;;;;;;5.53;4.38;;;27.80;99.90;;;;;;5046091;28;20112;-87
2022/08/15 10:25:18;;;;;;;6.75;4.68;;;27.90;99.90;;;;;;5055006;28;20515;-87
2022/08/15 10:28:00;;;;;;;4.82;4.40;;;27.70;99.90;;;;;;5054947;28;20045;-87
2022/08/15 10:30:31;;;;;;;7.43;4.85;;;27.50;99.90;;;;;;5054910;28;20036;-87
2022/08/15 10:32:59;;;;;;;5.68;4.72;;;27.70;99.90;;;;;;5055555;28;20040;-87
2022/08/15 10:35:41;;;;;;;5.40;4.90;;;28.00;99.90;;;;;;5055035;28;20025;-87
2022/08/15 10:38:09;;;;;;;5.47;4.97;;;27.70;99.90;;;;;;5055034;28;20024;-88
2022/08/15 10:40:44;;;;;;;5.25;4.75;;;28.00;99.90;;;;;;5054444;28;20554;-87
2022/08/15 10:43:44;;;;;;;5.10;4.60;;;28.10;99.90;;;;;;5054938;28;20134;-87
2022/08/15 10:46:42;;;;;;;4.82;4.38;;;31.50;99.90;;;;;;5054163;28;20407;-86
2022/08/15 10:49:30;;;;;;;5.43;4.80;;;36.50;99.90;;;;;;4953042;29;20492;-87
2022/08/15 10:52:27;;;;;;;6.25;5.05;;;37.20;99.90;;;;;;4957687;28;20059;-87
2022/08/15 10:55:19;;;;;;;7.82;5.43;;;38.60;99.90;;;;;;4973280;28;20439;-87
2022/08/15 10:57:52;;;;;;;7.00;5.30;;;36.70;99.90;;;;;;4955037;28;20050;-86
2022/08/15 11:01:06;;;;;;;5.72;4.97;;;36.20;99.90;;;;;;4937276;29;20400;-87
2022/08/15 11:03:48;;;;;;;5.88;5.20;;;39.20;99.90;;;;;;4878670;29;20213;-87
2022/08/15 11:06:20;;;;;;;5.43;4.93;;;40.30;99.90;;;;;;4878562;29;20108;-87
2022/08/15 11:08:53;;;;;;;5.25;4.72;;;37.20;97.70;;;;;;4880875;29;20041;-90
2022/08/15 11:11:24;;;;;;;8.10;4.93;;;35.10;96.90;;;;;;4868346;29;20056;-87
2022/08/15 11:13:54;;;;;;;5.55;4.43;;;33.60;94.30;;;;;;4877457;29;20085;-95
2022/08/15 11:16:40;;;;;;;7.65;5.18;;;33.10;95.80;;;;;;4865633;29;20096;-87
2022/08/15 11:19:19;;;;;;;5.88;4.65;;;33.60;97.40;;;;;;4877388;29;20123;-86
2022/08/15 11:21:55;;;;;;;5.13;4.60;;;33.30;95.50;;;;;;4877653;29;20041;-92
2022/08/15 11:24:30;;;;;;;7.10;5.22;;;38.30;97.40;;;;;;4897472;29;20090;-90
2022/08/15 11:27:16;;;;;;;6.10;5.20;;;38.20;95.70;;;;;;4945143;29;20159;-86
2022/08/15 11:29:44;;;;;;;6.13;5.53;;;34.90;93.60;;;;;;4953243;28;20113;-90
2022/08/15 11:32:13;;;;;;;5.75;5.20;;;34.10;93.60;;;;;;4952902;29;20031;-88
2022/08/15 11:34:46;;;;;;;6.55;5.40;;;34.60;93.70;;;;;;4953036;29;20039;-88
2022/08/15 11:37:19;;;;;;;6.25;4.82;;;34.80;93.50;;;;;;4998987;28;20044;-89
2022/08/15 11:39:57;;;;;;;6.40;5.40;;;36.50;93.90;;;;;;5035701;28;20115;-89
2022/08/15 11:42:24;;;;;;;4.97;4.63;;;34.50;93.50;;;;;;5052189;28;20028;-89
2022/08/15 11:44:58;;;;;;;7.30;5.20;;;33.80;93.00;;;;;;5053166;28;20080;-89
2022/08/15 11:47:28;;;;;;;6.13;5.18;;;34.20;93.70;;;;;;5053582;28;20032;-89
2022/08/15 11:49:57;;;;;;;5.85;5.32;;;34.30;92.70;;;;;;5052986;28;20021;-89
2022/08/15 11:52:31;;;;;;;6.25;5.18;;;36.10;93.40;;;;;;5052990;28;20550;-89
2022/08/15 11:55:18;;;;;;;6.50;5.05;;;35.00;92.80;;;;;;5052979;28;20021;-89
2022/08/15 11:57:48;;;;;;;4.90;4.50;;;34.30;92.60;;;;;;5052858;28;20017;-88
2022/08/15 12:00:41;;;;;;;5.75;5.25;;;34.00;92.20;;;;;;5053187;28;20028;-89
2022/08/15 12:03:31;;;;;;;6.32;4.90;;;34.90;92.50;;;;;;5052315;28;20431;-88
2022/08/15 12:06:18;;;;;;;5.80;4.38;;;34.90;92.30;;;;;;5052586;28;20032;-88
2022/08/15 12:08:46;;;;;;;5.78;4.88;;;34.20;91.30;;;;;;5053598;28;20374;-88
2022/08/15 12:11:12;;;;;;;6.22;4.82;;;34.50;91.30;;;;;;5067555;28;20083;-89
2022/08/15 12:13:39;;;;;;;4.97;4.57;;;36.10;92.10;;;;;;5052697;28;20362;-88
2022/08/15 12:16:05;;;;;;;6.32;4.68;;;40.40;92.40;;;;;;5052894;28;20493;-88
2022/08/15 12:18:34;;;;;;;5.03;4.63;;;41.60;90.50;;;;;;5052460;28;20509;-88
2022/08/15 12:20:59;;;;;;;5.20;4.70;;;42.40;90.60;;;;;;5051966;28;20036;-88
2022/08/15 12:23:44;;;;;;;4.70;4.05;;;43.00;85.70;;;;;;5052758;28;20027;-89
2022/08/15 12:26:16;;;;;;;5.28;4.43;;;42.90;82.90;;;;;;5051898;28;20044;-89
2022/08/15 12:28:43;;;;;;;5.20;4.70;;;38.90;76.10;;;;;;5053270;28;20451;-89
2022/08/15 12:31:27;;;;;;;5.22;4.82;;;35.80;75.00;;;;;;5072448;28;20056;-89
2022/08/15 12:34:11;;;;;;;6.57;4.60;;;35.30;79.90;;;;;;5061547;28;20028;-89
2022/08/15 12:36:40;;;;;;;6.72;4.88;;;39.60;79.40;;;;;;5052527;28;20034;-89
2022/08/15 12:39:06;;;;;;;6.88;4.97;;;42.00;80.90;;;;;;5052448;28;20036;-89
2022/08/15 12:41:32;;;;;;;6.50;4.60;;;42.80;75.90;;;;;;5045923;28;20033;-89
2022/08/15 12:43:57;;;;;;;6.30;4.50;;;43.50;75.40;;;;;;5052011;28;20033;-89
2022/08/15 12:46:23;;;;;;;4.70;4.25;;;41.00;71.60;;;;;;5052544;28;20060;-89
2022/08/15 12:48:49;;;;;;;6.97;4.50;;;42.40;68.50;;;;;;5071681;28;20035;-89
2022/08/15 12:51:16;;;;;;;5.05;4.40;;;44.00;71.90;;;;;;5069510;28;20028;-89
2022/08/15 12:53:42;;;;;;;5.05;4.60;;;44.60;69.40;;;;;;5068176;28;20036;-89
2022/08/15 12:56:09;;;;;;;5.45;4.47;;;45.20;64.40;;;;;;5052206;28;20021;-89
2022/08/15 12:58:36;;;;;;;4.63;4.10;;;44.90;62.60;;;;;;5052174;28;20048;-89
2022/08/15 13:01:05;;;;;;;6.47;4.53;;;41.10;57.50;;;;;;5051023;28;20096;-89
2022/08/15 13:03:33;;;;;;;4.85;4.43;;;40.30;61.20;;;;;;5051961;28;20025;-89
2022/08/15 13:06:07;;;;;;;4.43;4.03;;;40.90;63.60;;;;;;5052085;28;20124;-88
2022/08/15 13:08:33;;;;;;;4.75;4.35;;;42.70;61.90;;;;;;5051424;28;20448;-89
2022/08/15 13:10:59;;;;;;;4.85;4.45;;;43.70;59.70;;;;;;5051316;28;20484;-89
2022/08/15 13:13:25;;;;;;;5.32;4.38;;;43.80;59.70;;;;;;5051781;28;20111;-90
2022/08/15 13:15:51;;;;;;;6.38;4.75;;;43.30;58.90;;;;;;5051442;28;20087;-89
2022/08/15 13:18:20;;;;;;;4.57;4.28;;;43.30;72.10;;;;;;5052209;28;20028;-90
2022/08/15 13:23:40;;;;;;;4.20;3.80;;;42.10;57.80;;;;;;5051288;28;20056;-89
2022/08/15 13:26:12;;;;;;;5.78;4.35;;;42.10;56.30;;;;;;5051822;28;20033;-89
2022/08/15 13:28:40;;;;;;;4.60;4.18;;;41.60;59.60;;;;;;5051498;28;20025;-90